Time;durP1;ratioP1;P1;durP2;ratioP2;P2;SDS_P1;SDS_P2;PMS_P1;PMS_P2;Temp;Humidity;BMP_temperature;BMP_pressure;BME280_temperature;BME280_humidity;BME280_pressure;Samples;Min_cycle;Max_cycle;Signal;HPM_P1;HPM_P2
2022/01/07 00:00:32;;;;;;;6.18;2.05;;;;;;;;;;4711653;30;20549;-68
2022/01/07 00:03:15;;;;;;;12.95;4.28;;;;;;;;;;4703890;30;20057;-68
2022/01/07 00:05:45;;;;;;;4.20;2.38;;;;;;;;;;4684878;30;20087;-68
2022/01/07 00:08:16;;;;;;;5.13;2.10;;;;;;;;;;4699174;30;20067;-70
2022/01/07 00:10:47;;;;;;;2.78;1.33;;;;;;;;;;4699263;30;20515;-68
2022/01/07 00:13:17;;;;;;;6.22;1.92;;;;;;;;;;4728758;30;20551;-68
2022/01/07 00:15:48;;;;;;;4.72;1.50;;;;;;;;;;4764226;30;20071;-68
2022/01/07 00:18:18;;;;;;;2.55;1.45;;;;;;;;;;4757335;30;20771;-68
2022/01/07 00:20:51;;;;;;;4.05;1.77;;;;;;;;;;4699678;30;20066;-68
2022/01/07 00:23:22;;;;;;;8.45;1.52;;;;;;;;;;4681920;30;20066;-68
2022/01/07 00:25:52;;;;;;;4.35;1.60;;;;;;;;;;4693400;30;20058;-68
2022/01/07 00:28:23;;;;;;;7.95;1.38;;;;;;;;;;4684679;30;20439;-67
2022/01/07 00:30:53;;;;;;;8.02;2.70;;;;;;;;;;4723695;30;20072;-67
2022/01/07 00:33:24;;;;;;;4.20;1.80;;;;;;;;;;4732257;30;20518;-69
2022/01/07 00:35:56;;;;;;;3.72;2.00;;;;;;;;;;4722742;30;20057;-68
2022/01/07 00:38:29;;;;;;;7.38;1.85;;;;;;;;;;4715989;30;20072;-68
2022/01/07 00:41:03;;;;;;;5.85;1.40;;;;;;;;;;4715698;30;20057;-67
2022/01/07 00:43:33;;;;;;;5.55;1.95;;;;;;;;;;4702016;30;20541;-68
2022/01/07 00:46:04;;;;;;;4.90;1.65;;;;;;;;;;4706543;30;20072;-68
2022/01/07 00:48:34;;;;;;;5.68;1.70;;;;;;;;;;4715963;30;20067;-68
2022/01/07 00:51:05;;;;;;;5.75;1.73;;;;;;;;;;4696280;30;20066;-68
2022/01/07 00:53:35;;;;;;;4.35;1.83;;;;;;;;;;4681505;30;20542;-68
2022/01/07 00:56:05;;;;;;;5.28;2.15;;;;;;;;;;4681325;30;20073;-68
2022/01/07 00:58:36;;;;;;;7.43;1.80;;;;;;;;;;4705165;30;20066;-68
2022/01/07 01:01:06;;;;;;;3.58;1.60;;;;;;;;;;4698495;30;20070;-68
2022/01/07 01:03:37;;;;;;;11.05;5.78;;;;;;;;;;4715789;30;20072;-67
2022/01/07 01:06:08;;;;;;;3.58;1.27;;;;;;;;;;4715672;30;20060;-68
2022/01/07 01:08:38;;;;;;;7.53;4.18;;;;;;;;;;4689144;30;20077;-69
2022/01/07 01:11:08;;;;;;;4.28;1.27;;;;;;;;;;4688855;30;20411;-67
2022/01/07 01:13:39;;;;;;;6.35;1.50;;;;;;;;;;4704416;30;20423;-67
2022/01/07 01:16:09;;;;;;;5.15;1.52;;;;;;;;;;4707391;30;20072;-68
2022/01/07 01:18:39;;;;;;;5.32;1.65;;;;;;;;;;4730089;30;20069;-68
2022/01/07 01:21:10;;;;;;;7.05;1.58;;;;;;;;;;4730264;30;20068;-68
2022/01/07 01:23:45;;;;;;;4.10;1.40;;;;;;;;;;4715693;30;20065;-68
2022/01/07 01:26:15;;;;;;;4.55;1.30;;;;;;;;;;4718368;30;20072;-68
2022/01/07 01:28:47;;;;;;;4.65;1.17;;;;;;;;;;4733064;30;20239;-68
2022/01/07 01:31:18;;;;;;;3.47;1.73;;;;;;;;;;4732877;30;20431;-68
2022/01/07 01:33:48;;;;;;;4.28;1.65;;;;;;;;;;4748671;30;20557;-68
2022/01/07 01:36:19;;;;;;;4.15;1.25;;;;;;;;;;4732977;30;20083;-68
2022/01/07 01:38:49;;;;;;;4.78;1.33;;;;;;;;;;4733078;30;20064;-68
2022/01/07 01:41:19;;;;;;;5.50;1.52;;;;;;;;;;4732782;30;20056;-68
2022/01/07 01:43:50;;;;;;;6.32;1.73;;;;;;;;;;4732868;30;20065;-69
2022/01/07 01:46:21;;;;;;;4.45;1.42;;;;;;;;;;4732625;30;20052;-68
2022/01/07 01:48:52;;;;;;;5.13;1.30;;;;;;;;;;4728304;30;20059;-70
2022/01/07 01:51:22;;;;;;;6.43;1.60;;;;;;;;;;4750221;30;20070;-68
2022/01/07 01:53:53;;;;;;;5.32;1.48;;;;;;;;;;4750214;30;20060;-68
2022/01/07 01:56:24;;;;;;;4.07;1.38;;;;;;;;;;4771057;29;20089;-69
2022/01/07 01:58:54;;;;;;;4.18;1.45;;;;;;;;;;4755536;30;20055;-68
2022/01/07 02:01:24;;;;;;;6.20;1.83;;;;;;;;;;4764303;30;20059;-69
2022/01/07 02:03:55;;;;;;;5.47;1.58;;;;;;;;;;4750188;30;20060;-68
2022/01/07 02:06:27;;;;;;;5.57;2.05;;;;;;;;;;4732094;30;20529;-68
2022/01/07 02:08:57;;;;;;;4.43;2.05;;;;;;;;;;4718101;30;20072;-68
2022/01/07 02:11:27;;;;;;;6.05;1.80;;;;;;;;;;4683333;30;20109;-68
2022/01/07 02:13:57;;;;;;;3.10;1.25;;;;;;;;;;4711540;30;20073;-68
2022/01/07 02:16:28;;;;;;;4.55;1.30;;;;;;;;;;4697492;30;20065;-68
2022/01/07 02:19:00;;;;;;;3.90;1.20;;;;;;;;;;4697707;30;20445;-68
2022/01/07 02:21:30;;;;;;;2.70;1.40;;;;;;;;;;4697316;30;20553;-68
2022/01/07 02:24:02;;;;;;;3.05;1.40;;;;;;;;;;4714535;30;20060;-69
2022/01/07 02:26:36;;;;;;;8.05;1.48;;;;;;;;;;4719124;30;20054;-68
2022/01/07 02:29:10;;;;;;;5.40;1.30;;;;;;;;;;4728263;30;20057;-69
2022/01/07 02:31:41;;;;;;;4.30;1.20;;;;;;;;;;4707439;30;20064;-70
2022/01/07 02:34:11;;;;;;;2.47;0.82;;;;;;;;;;4687444;30;20074;-68
2022/01/07 02:36:42;;;;;;;5.60;1.02;;;;;;;;;;4679966;30;20077;-68
2022/01/07 02:39:12;;;;;;;4.30;1.02;;;;;;;;;;4703637;30;20057;-69
2022/01/07 02:41:44;;;;;;;1.58;0.90;;;;;;;;;;4699285;30;20065;-68
2022/01/07 02:44:14;;;;;;;8.27;1.13;;;;;;;;;;4731784;30;20075;-68
2022/01/07 02:46:45;;;;;;;4.45;1.10;;;;;;;;;;4734970;30;20064;-69
2022/01/07 02:49:18;;;;;;;4.43;1.15;;;;;;;;;;4749497;30;20060;-69
2022/01/07 02:51:49;;;;;;;2.55;1.17;;;;;;;;;;4749527;30;20068;-69
2022/01/07 02:54:19;;;;;;;7.88;1.23;;;;;;;;;;4748956;30;20056;-68
2022/01/07 02:56:49;;;;;;;2.38;1.00;;;;;;;;;;4749414;30;20060;-68
2022/01/07 02:59:20;;;;;;;9.02;1.17;;;;;;;;;;4749058;30;20621;-68
2022/01/07 03:01:50;;;;;;;3.67;1.08;;;;;;;;;;4753803;30;20056;-68
2022/01/07 03:04:23;;;;;;;5.35;1.00;;;;;;;;;;4731633;30;20061;-68
2022/01/07 03:06:53;;;;;;;4.80;1.48;;;;;;;;;;4726216;30;20068;-68
2022/01/07 03:09:24;;;;;;;2.60;0.85;;;;;;;;;;4717554;30;20060;-68
2022/01/07 03:11:54;;;;;;;2.47;0.90;;;;;;;;;;4761925;30;20067;-67
2022/01/07 03:14:25;;;;;;;4.82;1.17;;;;;;;;;;4770532;30;20064;-68
2022/01/07 03:16:55;;;;;;;3.78;1.10;;;;;;;;;;4749409;30;20083;-69
2022/01/07 03:19:25;;;;;;;4.97;1.00;;;;;;;;;;4735090;30;20071;-68
2022/01/07 03:21:56;;;;;;;4.03;1.10;;;;;;;;;;4760626;30;20052;-68
2022/01/07 03:24:26;;;;;;;3.95;0.90;;;;;;;;;;4737140;30;20686;-68
2022/01/07 03:26:56;;;;;;;1.95;1.23;;;;;;;;;;4737365;30;20056;-68
2022/01/07 03:29:28;;;;;;;3.97;1.13;;;;;;;;;;4722886;30;20534;-69
2022/01/07 03:31:58;;;;;;;3.03;1.08;;;;;;;;;;4708927;30;20507;-68
2022/01/07 03:34:29;;;;;;;4.53;1.05;;;;;;;;;;4699684;30;20065;-68
2022/01/07 03:36:59;;;;;;;4.55;1.05;;;;;;;;;;4700011;30;20068;-70
2022/01/07 03:39:29;;;;;;;5.75;1.77;;;;;;;;;;4717120;30;20179;-69
2022/01/07 03:41:59;;;;;;;4.53;0.95;;;;;;;;;;4696760;30;20410;-68
2022/01/07 03:44:30;;;;;;;2.42;0.80;;;;;;;;;;4734601;30;20572;-69
2022/01/07 03:47:00;;;;;;;5.65;1.20;;;;;;;;;;4734757;30;20059;-69
2022/01/07 03:49:30;;;;;;;7.13;1.35;;;;;;;;;;4708518;30;20061;-68
2022/01/07 03:52:01;;;;;;;4.90;1.27;;;;;;;;;;4699911;30;20065;-69
2022/01/07 03:54:31;;;;;;;4.28;1.10;;;;;;;;;;4693861;30;20426;-69
2022/01/07 03:57:01;;;;;;;4.97;1.40;;;;;;;;;;4717112;30;20065;-68
2022/01/07 03:59:32;;;;;;;3.92;1.45;;;;;;;;;;4708885;30;20095;-68
2022/01/07 04:02:03;;;;;;;6.22;1.50;;;;;;;;;;4697753;30;20060;-69
2022/01/07 04:04:33;;;;;;;3.85;1.17;;;;;;;;;;4725331;30;20446;-69
2022/01/07 04:07:04;;;;;;;3.58;1.75;;;;;;;;;;4751772;30;20082;-68
2022/01/07 04:09:34;;;;;;;7.85;1.80;;;;;;;;;;4748590;30;20446;-69
2022/01/07 04:12:05;;;;;;;5.45;1.40;;;;;;;;;;4769615;30;20078;-69
2022/01/07 04:14:36;;;;;;;5.38;1.45;;;;;;;;;;4769645;30;20067;-68
2022/01/07 04:17:07;;;;;;;7.35;1.35;;;;;;;;;;4753979;30;20064;-68
2022/01/07 04:19:37;;;;;;;6.00;1.63;;;;;;;;;;4739943;30;20055;-69
2022/01/07 04:22:09;;;;;;;4.55;1.20;;;;;;;;;;4751696;30;20102;-68
2022/01/07 04:24:39;;;;;;;6.75;1.58;;;;;;;;;;4751929;30;20064;-68
2022/01/07 04:27:10;;;;;;;5.57;1.73;;;;;;;;;;4768985;30;20066;-69
2022/01/07 04:29:40;;;;;;;2.83;1.33;;;;;;;;;;4754590;30;20068;-69
2022/01/07 04:32:10;;;;;;;5.07;1.88;;;;;;;;;;4748069;30;20057;-69
2022/01/07 04:34:40;;;;;;;4.53;1.48;;;;;;;;;;4733925;30;20063;-69
2022/01/07 04:37:11;;;;;;;7.65;1.65;;;;;;;;;;4751370;30;20052;-69
2022/01/07 04:39:41;;;;;;;5.05;1.38;;;;;;;;;;4736814;30;20064;-69
2022/01/07 04:42:12;;;;;;;6.25;1.92;;;;;;;;;;4738300;30;20514;-69
2022/01/07 04:44:42;;;;;;;8.20;1.77;;;;;;;;;;4760455;30;20068;-69
2022/01/07 04:47:12;;;;;;;4.32;1.20;;;;;;;;;;4751751;30;20067;-70
2022/01/07 04:49:43;;;;;;;5.53;1.58;;;;;;;;;;4751273;30;20056;-68
2022/01/07 04:52:13;;;;;;;7.68;1.20;;;;;;;;;;4733466;30;20056;-69
2022/01/07 04:54:46;;;;;;;6.20;1.80;;;;;;;;;;4733431;30;20052;-69
2022/01/07 04:57:17;;;;;;;5.28;2.10;;;;;;;;;;4733526;30;20071;-69
2022/01/07 04:59:47;;;;;;;3.83;1.80;;;;;;;;;;4719085;30;20065;-69
2022/01/07 05:02:21;;;;;;;6.20;1.60;;;;;;;;;;4733106;30;20498;-69
2022/01/07 05:04:51;;;;;;;7.00;1.85;;;;;;;;;;4711283;30;20061;-68
2022/01/07 05:07:21;;;;;;;7.57;2.10;;;;;;;;;;4716418;30;20057;-69
2022/01/07 05:09:52;;;;;;;6.20;1.42;;;;;;;;;;4701318;30;20410;-69
2022/01/07 05:12:22;;;;;;;5.53;1.77;;;;;;;;;;4716063;30;20084;-70
2022/01/07 05:14:53;;;;;;;6.93;1.90;;;;;;;;;;4689881;30;20053;-69
2022/01/07 05:17:23;;;;;;;6.90;2.20;;;;;;;;;;4716275;30;20188;-69
2022/01/07 05:19:54;;;;;;;5.53;2.20;;;;;;;;;;4732922;30;20056;-69
2022/01/07 05:22:25;;;;;;;5.10;1.90;;;;;;;;;;4715197;30;20049;-70
2022/01/07 05:24:55;;;;;;;6.22;1.60;;;;;;;;;;4715492;30;20061;-70
2022/01/07 05:27:26;;;;;;;6.55;1.80;;;;;;;;;;4700626;30;20099;-69
2022/01/07 05:29:56;;;;;;;5.38;2.00;;;;;;;;;;4710158;30;20088;-69
2022/01/07 05:32:27;;;;;;;5.20;1.70;;;;;;;;;;4674660;30;20065;-69
2022/01/07 05:34:57;;;;;;;9.18;2.10;;;;;;;;;;4680011;30;20077;-70
2022/01/07 05:37:28;;;;;;;4.53;1.90;;;;;;;;;;4632525;30;20505;-71
2022/01/07 05:39:58;;;;;;;8.93;1.77;;;;;;;;;;4680370;30;20559;-69
2022/01/07 05:42:29;;;;;;;8.27;1.40;;;;;;;;;;4680652;30;20062;-69
2022/01/07 05:44:59;;;;;;;6.50;1.67;;;;;;;;;;4680716;30;20066;-69
2022/01/07 05:47:29;;;;;;;7.70;1.65;;;;;;;;;;4680707;30;20066;-69
2022/01/07 05:49:59;;;;;;;4.18;1.50;;;;;;;;;;4677234;30;20062;-70
2022/01/07 05:52:29;;;;;;;3.78;2.05;;;;;;;;;;4638100;30;20475;-69
2022/01/07 05:54:59;;;;;;;5.07;1.73;;;;;;;;;;4646303;30;20062;-71
2022/01/07 05:57:30;;;;;;;7.00;1.85;;;;;;;;;;4646097;30;20062;-69
2022/01/07 06:00:00;;;;;;;6.63;1.70;;;;;;;;;;4654432;30;20063;-69
2022/01/07 06:02:40;;;;;;;9.65;1.92;;;;;;;;;;4663313;30;20564;-69
2022/01/07 06:05:11;;;;;;;4.50;1.80;;;;;;;;;;4635034;30;20062;-68
2022/01/07 06:07:41;;;;;;;6.43;1.75;;;;;;;;;;4646039;30;20059;-69
2022/01/07 06:10:11;;;;;;;6.22;1.80;;;;;;;;;;4664041;30;20590;-69
2022/01/07 06:12:41;;;;;;;7.13;1.88;;;;;;;;;;4651518;30;20066;-69
2022/01/07 06:15:12;;;;;;;7.88;1.42;;;;;;;;;;4680308;30;20058;-70
2022/01/07 06:17:42;;;;;;;7.57;1.95;;;;;;;;;;4738275;30;20502;-69
2022/01/07 06:20:13;;;;;;;3.75;1.88;;;;;;;;;;4730486;30;20132;-69
2022/01/07 06:22:42;;;;;;;4.43;1.80;;;;;;;;;;4679845;30;20065;-69
2022/01/07 06:25:13;;;;;;;4.90;1.55;;;;;;;;;;4697362;30;20176;-69
2022/01/07 06:27:44;;;;;;;8.07;2.10;;;;;;;;;;4697024;30;20064;-70
2022/01/07 06:30:14;;;;;;;4.90;1.20;;;;;;;;;;4706278;30;20076;-69
2022/01/07 06:32:44;;;;;;;7.72;1.73;;;;;;;;;;4723928;30;20060;-70
2022/01/07 06:35:16;;;;;;;4.57;1.85;;;;;;;;;;4722329;30;20061;-70
2022/01/07 06:37:47;;;;;;;6.05;1.60;;;;;;;;;;4714495;30;20072;-70
2022/01/07 06:40:17;;;;;;;4.80;1.80;;;;;;;;;;4713911;30;20080;-69
2022/01/07 06:42:48;;;;;;;5.25;2.83;;;;;;;;;;4714212;30;20068;-70
2022/01/07 06:45:18;;;;;;;5.15;1.65;;;;;;;;;;4722892;30;20068;-70
2022/01/07 06:47:48;;;;;;;5.75;1.70;;;;;;;;;;4757525;30;20233;-70
2022/01/07 06:50:18;;;;;;;7.05;1.83;;;;;;;;;;4749096;30;20056;-70
2022/01/07 06:52:49;;;;;;;5.45;1.20;;;;;;;;;;4745076;30;20083;-70
2022/01/07 06:55:19;;;;;;;7.25;2.50;;;;;;;;;;4749435;30;20071;-70
2022/01/07 06:57:50;;;;;;;6.03;1.80;;;;;;;;;;4714102;30;20057;-70
2022/01/07 07:00:20;;;;;;;5.25;1.30;;;;;;;;;;4688445;30;20423;-70
2022/01/07 07:02:51;;;;;;;7.05;2.15;;;;;;;;;;4679287;30;20093;-69
2022/01/07 07:05:21;;;;;;;6.05;1.48;;;;;;;;;;4679463;30;20066;-69
2022/01/07 07:07:52;;;;;;;4.78;1.75;;;;;;;;;;4659232;30;20062;-70
2022/01/07 07:10:23;;;;;;;6.47;2.00;;;;;;;;;;4676137;30;20109;-70
2022/01/07 07:12:53;;;;;;;5.90;1.80;;;;;;;;;;4679288;30;20062;-69
2022/01/07 07:15:23;;;;;;;8.52;2.17;;;;;;;;;;4679210;30;20077;-69
2022/01/07 07:17:53;;;;;;;8.27;1.88;;;;;;;;;;4679257;30;20073;-70
2022/01/07 07:20:24;;;;;;;4.20;1.65;;;;;;;;;;4679523;30;20471;-70
2022/01/07 07:22:54;;;;;;;6.03;1.73;;;;;;;;;;4665956;30;20062;-69
2022/01/07 07:25:25;;;;;;;4.25;1.90;;;;;;;;;;4671399;30;20063;-69
2022/01/07 07:27:55;;;;;;;8.48;2.67;;;;;;;;;;4648506;30;20078;-69
2022/01/07 07:30:33;;;;;;;7.78;2.45;;;;;;;;;;4662156;30;20062;-70
2022/01/07 07:38:48;;;;;;;4.47;1.42;;;;;;;;;;4710962;30;20072;-69
2022/01/07 07:41:18;;;;;;;5.13;2.30;;;;;;;;;;4748883;30;20067;-70
2022/01/07 07:43:50;;;;;;;5.97;1.80;;;;;;;;;;4724988;30;20461;-70
2022/01/07 07:46:21;;;;;;;7.90;2.38;;;;;;;;;;4713653;30;20175;-70
2022/01/07 07:48:52;;;;;;;8.77;2.22;;;;;;;;;;4713424;30;20069;-71
2022/01/07 07:51:22;;;;;;;5.97;1.80;;;;;;;;;;4698103;30;20415;-70
2022/01/07 07:53:53;;;;;;;4.97;2.08;;;;;;;;;;4731683;30;20068;-70
2022/01/07 07:56:25;;;;;;;8.27;2.72;;;;;;;;;;4735122;30;20068;-70
2022/01/07 07:58:57;;;;;;;8.35;2.20;;;;;;;;;;4716500;30;20065;-71
2022/01/07 08:01:28;;;;;;;5.03;2.53;;;;;;;;;;4699201;30;20057;-71
2022/01/07 08:03:58;;;;;;;7.05;2.10;;;;;;;;;;4682052;30;20069;-71
2022/01/07 08:06:29;;;;;;;8.05;2.30;;;;;;;;;;4699208;30;20499;-71
2022/01/07 08:08:59;;;;;;;6.03;1.77;;;;;;;;;;4699167;30;20069;-71
2022/01/07 08:11:33;;;;;;;6.38;1.58;;;;;;;;;;4698906;30;20053;-71
2022/01/07 08:16:53;;;;;;;6.32;2.28;;;;;;;;;;4681870;30;20058;-70
2022/01/07 08:19:23;;;;;;;5.43;1.75;;;;;;;;;;4682167;30;20066;-70
2022/01/07 08:21:53;;;;;;;4.40;1.98;;;;;;;;;;4681938;30;20070;-71
2022/01/07 08:24:25;;;;;;;6.13;2.40;;;;;;;;;;4681673;30;20065;-72
2022/01/07 08:26:56;;;;;;;7.57;1.70;;;;;;;;;;4681887;30;20563;-70
2022/01/07 08:29:30;;;;;;;9.38;1.73;;;;;;;;;;4681717;30;20065;-71
2022/01/07 08:34:56;;;;;;;6.85;1.90;;;;;;;;;;4716221;30;20434;-71
2022/01/07 08:37:29;;;;;;;7.90;2.20;;;;;;;;;;4687062;30;20084;-71
2022/01/07 08:39:59;;;;;;;7.95;2.33;;;;;;;;;;4686596;30;20076;-71
2022/01/07 08:42:29;;;;;;;7.45;2.47;;;;;;;;;;4683896;30;20072;-71
2022/01/07 08:45:00;;;;;;;5.75;1.80;;;;;;;;;;4667584;30;20063;-71
2022/01/07 08:47:30;;;;;;;5.90;2.83;;;;;;;;;;4685819;30;20072;-71
2022/01/07 08:50:01;;;;;;;5.80;2.15;;;;;;;;;;4684757;30;20061;-71
2022/01/07 08:52:31;;;;;;;5.95;2.05;;;;;;;;;;4715783;30;20060;-71
2022/01/07 08:55:01;;;;;;;5.57;1.92;;;;;;;;;;4715807;30;20060;-70
2022/01/07 08:57:31;;;;;;;8.43;2.50;;;;;;;;;;4715867;30;20069;-71
2022/01/07 09:00:02;;;;;;;7.88;2.30;;;;;;;;;;4715858;30;20057;-71
2022/01/07 09:02:32;;;;;;;7.65;2.00;;;;;;;;;;4718487;30;20060;-70
2022/01/07 09:05:03;;;;;;;5.97;1.85;;;;;;;;;;4733298;30;20064;-70
2022/01/07 09:07:34;;;;;;;4.68;2.15;;;;;;;;;;4715598;30;20057;-70
2022/01/07 09:10:05;;;;;;;7.85;2.08;;;;;;;;;;4707234;30;20065;-70
2022/01/07 09:12:35;;;;;;;7.50;1.88;;;;;;;;;;4707277;30;20069;-70
2022/01/07 09:15:06;;;;;;;4.72;2.28;;;;;;;;;;4709520;30;20106;-70
2022/01/07 09:17:36;;;;;;;4.93;2.55;;;;;;;;;;4714631;30;20053;-71
2022/01/07 09:20:08;;;;;;;6.60;1.55;;;;;;;;;;4695177;30;20057;-71
2022/01/07 09:22:40;;;;;;;6.32;1.80;;;;;;;;;;4715360;30;20068;-69
2022/01/07 09:25:10;;;;;;;6.43;2.05;;;;;;;;;;4715007;30;20099;-71
2022/01/07 09:27:41;;;;;;;7.05;1.50;;;;;;;;;;4701145;30;20053;-70
2022/01/07 09:30:13;;;;;;;7.05;1.95;;;;;;;;;;4691889;30;20061;-70
2022/01/07 09:32:44;;;;;;;8.43;2.33;;;;;;;;;;4697839;30;20062;-70
2022/01/07 09:35:16;;;;;;;7.55;2.30;;;;;;;;;;4684103;30;20057;-70
2022/01/07 09:37:46;;;;;;;8.90;1.95;;;;;;;;;;4706688;30;20538;-70
2022/01/07 09:40:18;;;;;;;4.72;2.20;;;;;;;;;;4701533;30;20065;-70
2022/01/07 09:43:05;;;;;;;8.75;2.58;;;;;;;;;;4701378;30;20069;-70
2022/01/07 09:45:38;;;;;;;6.05;1.75;;;;;;;;;;4694448;30;20414;-71
2022/01/07 09:48:08;;;;;;;9.68;2.33;;;;;;;;;;4749927;30;20056;-71
2022/01/07 09:50:39;;;;;;;8.55;2.45;;;;;;;;;;4738292;30;20063;-71
2022/01/07 09:53:15;;;;;;;4.05;1.52;;;;;;;;;;4749752;30;20055;-71
2022/01/07 09:55:45;;;;;;;7.95;2.10;;;;;;;;;;4743024;30;20052;-71
2022/01/07 09:58:16;;;;;;;9.90;2.35;;;;;;;;;;4709633;30;20518;-71
2022/01/07 10:00:47;;;;;;;5.35;2.95;;;;;;;;;;4714769;30;20069;-71
2022/01/07 10:03:19;;;;;;;6.00;2.08;;;;;;;;;;4690734;30;20534;-70
2022/01/07 10:05:50;;;;;;;;;;;;;;;;;;4666332;30;20207;-70
2022/01/07 10:08:21;;;;;;;5.38;1.83;;;;;;;;;;4680204;30;20300;-71
2022/01/07 10:11:18;;;;;;;8.18;2.13;;;;;;;;;;4662978;30;20115;-70
2022/01/07 10:14:12;;;;;;;5.07;1.40;;;;;;;;;;4679964;30;20562;-70
2022/01/07 10:16:55;;;;;;;4.63;2.30;;;;;;;;;;4690418;30;20069;-70
2022/01/07 10:19:41;;;;;;;4.32;1.50;;;;;;;;;;4668835;30;20058;-70
2022/01/07 10:22:15;;;;;;;5.15;2.08;;;;;;;;;;4697406;30;20566;-70
2022/01/07 10:25:01;;;;;;;4.25;1.83;;;;;;;;;;4709879;30;20068;-70
2022/01/07 10:27:39;;;;;;;6.10;2.00;;;;;;;;;;4683183;30;20076;-69
2022/01/07 10:30:25;;;;;;;5.05;2.20;;;;;;;;;;4693075;30;20062;-68
2022/01/07 10:32:56;;;;;;;5.25;1.85;;;;;;;;;;4680029;30;20058;-70
2022/01/07 10:35:28;;;;;;;4.13;2.03;;;;;;;;;;4695735;30;20590;-69
2022/01/07 10:38:01;;;;;;;58.55;33.40;;;;;;;;;;4732147;30;20060;-69
2022/01/07 10:40:34;;;;;;;4.75;2.55;;;;;;;;;;4714113;30;20057;-69
2022/01/07 10:43:32;;;;;;;6.85;4.47;;;;;;;;;;4714420;30;20165;-69
2022/01/07 10:46:11;;;;;;;3.22;1.88;;;;;;;;;;4731588;30;20060;-68
2022/01/07 10:48:57;;;;;;;5.88;2.42;;;;;;;;;;4731619;30;20087;-69
2022/01/07 10:51:38;;;;;;;6.07;2.97;;;;;;;;;;4741678;30;20087;-71
2022/01/07 10:54:10;;;;;;;4.20;1.92;;;;;;;;;;4749510;30;20052;-69
2022/01/07 10:56:47;;;;;;;2.67;1.40;;;;;;;;;;4764068;30;20063;-68
2022/01/07 10:59:20;;;;;;;4.22;1.88;;;;;;;;;;4728389;30;20064;-68
2022/01/07 11:01:55;;;;;;;4.35;2.25;;;;;;;;;;4728135;30;20056;-69
2022/01/07 11:04:31;;;;;;;3.33;1.83;;;;;;;;;;4714370;30;20111;-68
2022/01/07 11:07:09;;;;;;;4.53;1.65;;;;;;;;;;4713971;30;20414;-69
2022/01/07 11:09:40;;;;;;;4.63;2.05;;;;;;;;;;4714356;30;20069;-69
2022/01/07 11:12:10;;;;;;;4.30;1.50;;;;;;;;;;4714063;30;20467;-68
2022/01/07 11:14:42;;;;;;;4.40;2.22;;;;;;;;;;4679178;30;20054;-68
2022/01/07 11:17:20;;;;;;;3.28;2.10;;;;;;;;;;4681079;30;20062;-69
2022/01/07 11:19:57;;;;;;;6.22;1.83;;;;;;;;;;4679292;30;20065;-69
2022/01/07 11:22:28;;;;;;;5.70;1.90;;;;;;;;;;4662119;30;20061;-69
2022/01/07 11:24:59;;;;;;;5.18;1.80;;;;;;;;;;4662523;30;20067;-69
2022/01/07 11:27:30;;;;;;;4.25;2.17;;;;;;;;;;4665331;30;20062;-67
2022/01/07 11:30:04;;;;;;;3.50;2.22;;;;;;;;;;4665633;30;20066;-69
2022/01/07 11:32:52;;;;;;;4.70;2.08;;;;;;;;;;4665551;30;20424;-66
2022/01/07 11:35:23;;;;;;;4.38;1.80;;;;;;;;;;4665670;30;20066;-67
2022/01/07 11:38:00;;;;;;;3.42;1.70;;;;;;;;;;4649287;30;20062;-69
2022/01/07 11:40:33;;;;;;;4.80;1.70;;;;;;;;;;4681195;30;20435;-68
2022/01/07 11:43:29;;;;;;;4.50;2.28;;;;;;;;;;4682689;30;20073;-68
2022/01/07 11:46:20;;;;;;;4.72;2.33;;;;;;;;;;4699800;30;20513;-69
2022/01/07 11:48:54;;;;;;;3.83;1.63;;;;;;;;;;4700062;30;20066;-68
2022/01/07 11:51:34;;;;;;;2.40;1.67;;;;;;;;;;4706167;30;20942;-67
2022/01/07 11:54:06;;;;;;;7.38;2.30;;;;;;;;;;4725820;30;20052;-69
2022/01/07 11:56:38;;;;;;;5.18;2.17;;;;;;;;;;4774715;29;20414;-67
2022/01/07 11:59:14;;;;;;;4.07;2.00;;;;;;;;;;4805852;29;20152;-67
2022/01/07 12:01:54;;;;;;;4.35;1.80;;;;;;;;;;4806213;29;20062;-69
2022/01/07 12:04:29;;;;;;;3.47;2.40;;;;;;;;;;4791212;29;20059;-68
2022/01/07 12:07:02;;;;;;;4.07;2.00;;;;;;;;;;4805795;29;20050;-68
2022/01/07 12:09:36;;;;;;;5.50;2.00;;;;;;;;;;4805722;29;20103;-68
2022/01/07 12:12:10;;;;;;;3.83;1.45;;;;;;;;;;4769527;30;20051;-69
2022/01/07 12:14:51;;;;;;;6.20;1.70;;;;;;;;;;4772498;30;20067;-68
2022/01/07 12:17:25;;;;;;;4.03;1.88;;;;;;;;;;4787494;30;20085;-68
2022/01/07 12:20:13;;;;;;;5.15;1.90;;;;;;;;;;4787536;30;20071;-69
2022/01/07 12:22:48;;;;;;;5.97;1.50;;;;;;;;;;4787417;30;20381;-68
2022/01/07 12:25:18;;;;;;;4.55;1.85;;;;;;;;;;4787654;30;20079;-67
2022/01/07 12:27:58;;;;;;;5.25;2.17;;;;;;;;;;4765856;30;20073;-69
2022/01/07 12:30:29;;;;;;;5.13;2.63;;;;;;;;;;4736570;30;20505;-69
2022/01/07 12:33:06;;;;;;;5.13;1.85;;;;;;;;;;4754309;30;20064;-71
2022/01/07 12:35:37;;;;;;;2.78;1.90;;;;;;;;;;4733995;30;20502;-68
2022/01/07 12:38:13;;;;;;;6.05;2.10;;;;;;;;;;4733076;30;20064;-71
2022/01/07 12:40:53;;;;;;;3.75;1.90;;;;;;;;;;4734091;30;20584;-68
2022/01/07 12:43:30;;;;;;;5.10;2.00;;;;;;;;;;4734158;30;20414;-69
2022/01/07 12:46:02;;;;;;;;;;;;;;;;;;4734434;30;20407;-69
2022/01/07 12:48:40;;;;;;;4.30;1.90;;;;;;;;;;4733834;30;19926;-67
2022/01/07 12:51:11;;;;;;;6.10;2.58;;;;;;;;;;4769130;30;20063;-70
2022/01/07 12:54:01;;;;;;;3.47;2.13;;;;;;;;;;4761901;30;20066;-69
2022/01/07 12:56:32;;;;;;;;;;;;;;;;;;4751596;30;20056;-67
2022/01/07 12:59:16;;;;;;;7.50;2.10;;;;;;;;;;4751153;30;20408;-68
2022/01/07 13:01:49;;;;;;;4.28;2.35;;;;;;;;;;4751134;30;20060;-69
2022/01/07 13:04:22;;;;;;;3.28;1.92;;;;;;;;;;4737106;30;20063;-69
2022/01/07 13:06:55;;;;;;;26.65;20.50;;;;;;;;;;4768843;30;20528;-68
2022/01/07 13:09:29;;;;;;;7.07;3.25;;;;;;;;;;4768897;30;20094;-69
2022/01/07 13:12:01;;;;;;;5.03;2.63;;;;;;;;;;4786691;30;20529;-70
2022/01/07 13:14:31;;;;;;;7.15;5.15;;;;;;;;;;4771772;30;20532;-70
2022/01/07 13:17:03;;;;;;;3.42;2.20;;;;;;;;;;4786421;30;20063;-67
2022/01/07 13:19:43;;;;;;;5.50;2.25;;;;;;;;;;4768636;30;20064;-67
2022/01/07 13:22:14;;;;;;;8.82;2.10;;;;;;;;;;4768524;30;20452;-67
2022/01/07 13:24:47;;;;;;;4.57;2.15;;;;;;;;;;4754018;30;20067;-69
2022/01/07 13:27:17;;;;;;;5.65;2.30;;;;;;;;;;4750492;30;20052;-68
2022/01/07 13:29:49;;;;;;;5.03;2.25;;;;;;;;;;4750255;30;20067;-67
2022/01/07 13:32:22;;;;;;;4.63;1.70;;;;;;;;;;4703551;30;20079;-68
2022/01/07 13:34:52;;;;;;;6.85;4.40;;;;;;;;;;4740926;30;20056;-69
2022/01/07 13:37:28;;;;;;;5.93;3.10;;;;;;;;;;4750515;30;20060;-68
2022/01/07 13:40:00;;;;;;;5.47;1.92;;;;;;;;;;4750685;30;20060;-70
2022/01/07 13:42:33;;;;;;;2.97;1.67;;;;;;;;;;4732580;30;20057;-68
2022/01/07 13:45:06;;;;;;;4.68;1.92;;;;;;;;;;4732550;30;20068;-68
2022/01/07 13:47:38;;;;;;;3.40;2.25;;;;;;;;;;4732772;30;20412;-68
2022/01/07 13:50:17;;;;;;;;;;;;;;;;;;4734192;30;20068;-69
2022/01/07 13:52:48;;;;;;;5.32;2.53;;;;;;;;;;4715065;30;20428;-68
2022/01/07 13:55:29;;;;;;;5.97;2.35;;;;;;;;;;4732270;30;20060;-68
2022/01/07 13:58:11;;;;;;;4.93;2.00;;;;;;;;;;4732609;30;20071;-68
2022/01/07 14:00:43;;;;;;;4.47;2.10;;;;;;;;;;4703341;30;20056;-67
2022/01/07 14:03:15;;;;;;;4.65;2.00;;;;;;;;;;4732533;30;20067;-68
2022/01/07 14:06:01;;;;;;;3.42;1.65;;;;;;;;;;4747079;30;20441;-67
2022/01/07 14:08:32;;;;;;;2.60;1.73;;;;;;;;;;4767491;30;20052;-66
2022/01/07 14:11:13;;;;;;;6.03;2.53;;;;;;;;;;4732142;30;20071;-67
2022/01/07 14:13:45;;;;;;;3.38;1.83;;;;;;;;;;4717192;30;20056;-66
2022/01/07 14:16:24;;;;;;;5.63;2.05;;;;;;;;;;4732605;30;20060;-67
2022/01/07 14:19:01;;;;;;;4.65;2.05;;;;;;;;;;4732217;30;20065;-67
2022/01/07 14:21:31;;;;;;;4.05;1.95;;;;;;;;;;4715203;30;20533;-67
2022/01/07 14:24:02;;;;;;;4.35;2.45;;;;;;;;;;4743593;30;20090;-67
2022/01/07 14:26:42;;;;;;;3.38;2.05;;;;;;;;;;4749394;30;20059;-69
2022/01/07 14:29:14;;;;;;;3.70;2.35;;;;;;;;;;4749320;30;20056;-69
2022/01/07 14:31:53;;;;;;;14.80;11.30;;;;;;;;;;4749456;30;20060;-68
2022/01/07 14:34:24;;;;;;;4.65;2.85;;;;;;;;;;4732878;30;20071;-68
2022/01/07 14:36:54;;;;;;;3.10;1.95;;;;;;;;;;4749618;30;20245;-68
2022/01/07 14:39:24;;;;;;;3.72;2.40;;;;;;;;;;4749521;30;20120;-68
2022/01/07 14:41:54;;;;;;;4.18;2.20;;;;;;;;;;4749657;30;20059;-69
2022/01/07 14:44:24;;;;;;;3.10;2.28;;;;;;;;;;4749473;30;20068;-68
2022/01/07 14:46:56;;;;;;;4.72;2.17;;;;;;;;;;4749496;30;20064;-67
2022/01/07 14:49:30;;;;;;;5.32;2.38;;;;;;;;;;4764376;30;20163;-67
2022/01/07 14:52:00;;;;;;;4.22;1.70;;;;;;;;;;4735656;30;20681;-70
2022/01/07 14:54:31;;;;;;;5.97;2.10;;;;;;;;;;4749072;30;20059;-68
2022/01/07 14:57:02;;;;;;;3.78;2.97;;;;;;;;;;4744515;30;20060;-69
2022/01/07 14:59:37;;;;;;;4.85;1.60;;;;;;;;;;4734465;30;20546;-68
2022/01/07 15:02:09;;;;;;;5.03;2.40;;;;;;;;;;4748698;30;20538;-68
2022/01/07 15:04:41;;;;;;;3.63;2.03;;;;;;;;;;4720043;30;20063;-67
2022/01/07 15:07:12;;;;;;;4.25;2.40;;;;;;;;;;4760244;30;20056;-68
2022/01/07 15:09:42;;;;;;;3.50;1.83;;;;;;;;;;4766928;30;20060;-67
2022/01/07 15:12:13;;;;;;;6.15;2.35;;;;;;;;;;4749013;30;20056;-66
2022/01/07 15:14:46;;;;;;;3.92;1.85;;;;;;;;;;4749109;30;20060;-66
2022/01/07 15:17:16;;;;;;;3.90;2.00;;;;;;;;;;4749180;30;20060;-67
2022/01/07 15:19:46;;;;;;;4.97;2.22;;;;;;;;;;4731242;30;20064;-69
2022/01/07 15:22:17;;;;;;;3.53;2.13;;;;;;;;;;4702482;30;20068;-69
2022/01/07 15:24:47;;;;;;;4.72;1.95;;;;;;;;;;4731336;30;20070;-68